Zemst, Belgium
Current Conditions -  °F | °C
As of 9:50 AM on Saturday 25 Oct 2014 (Local Time) from EBBR Reporting Station
Haze Haze  
Wind Chill: 12°   Ceiling: 500
Heat Index: 12°   Visibility: 2.5mi
Dew Point: 11°   Wind: 7mph
Humidity: 94%   Direction: 220°SW
Pressure: 30.06"   Gusts: NA
Location:  50.98°N, 4.46°E
Report Text: EBBR 250750Z 22006KT 4000 BR SCT003 BKN005 12/11 Q1018 NOSIG
Loading
Personal Weather Stations






























Interactive Weather Map
Tropical Storm Tracking
New forecast layout! Learn more

10-Day Weather Forecast

Advertisements
Track Severe Weather on mobile